Decoded Metar for KBNO (BURNS in OR, USA) (IATA:BNO) | Meteo·Mobile Aviation Weather
aviador You're here:

KBNO Decoded Metar

BURNS in OR, USA
Report Time2018-09-22 17:53:00
UTC Time2018-09-22 18:56:39
Flight Rules vfr VFR
Wind210° at 07 kt
W.Decomp.*RWY 21: 6.7 kt HW 2.2 kt LCW
RWY 12: 2.2 kt HW 6.7 kt RCW
W.Rank210° ranks 10
Current wind is below 210° avg. (8.1)
Visibility9999 m
Phenomena:N/A
Clouds:N/A
Expected CloudBase > 8,800 ft AGL from Temp-Dew spread
CeilingNone
Temp18°C (ISA +11)
Dew Point-4°C (22% RH)
AAT13.0°C
QNH1018 hPa
Density Alt5,351 ft
Elevation4,147 ft
Report Wrong Elevation
Raw Report
KBNO 221753Z AUTO 21007KT 10SM CLR 18/M04 A3007 RMK AO2 SLP168
T01781039 10178 20039 51000=

Extra information for KBNO:More info

Metar Taf Metar & Taf Last 4 Metars F.Rules Stats Wind Profile Meteogram Temp Stats Airport Information Weather charts Add Link Nearby VenuesMetar ALERT Operation Metar Decoded Social comments

AIRNAV info for KBNO